createdAt,value
2023-01-13T00:01:11.425Z,6.90
2023-01-13T00:03:40.659Z,6.90
2023-01-13T00:06:22.927Z,7.00
2023-01-13T00:08:51.966Z,7.00
2023-01-13T00:11:21.567Z,7.00
2023-01-13T00:13:51.587Z,7.00
2023-01-13T00:16:21.413Z,7.00
2023-01-13T00:18:51.279Z,7.10
2023-01-13T00:21:30.426Z,7.10
2023-01-13T00:23:59.007Z,7.10
2023-01-13T00:26:30.717Z,7.10
2023-01-13T00:29:01.576Z,7.10
2023-01-13T00:31:31.080Z,7.10
2023-01-13T00:34:00.784Z,7.10
2023-01-13T00:36:30.862Z,7.10
2023-01-13T00:38:59.869Z,7.10
2023-01-13T00:41:29.363Z,7.00
2023-01-13T00:43:56.960Z,7.00
2023-01-13T00:46:27.068Z,7.00
2023-01-13T00:48:55.679Z,7.00
2023-01-13T00:57:36.927Z,7.10
2023-01-13T01:00:05.933Z,7.10
2023-01-13T01:02:36.033Z,7.10
2023-01-13T01:05:04.734Z,7.10
2023-01-13T01:07:33.489Z,7.10
2023-01-13T01:10:02.119Z,7.10
2023-01-13T01:12:31.746Z,7.10
2023-01-13T01:15:00.334Z,7.10
2023-01-13T01:17:30.041Z,7.10
2023-01-13T01:20:00.053Z,7.10
2023-01-13T01:22:28.600Z,7.10
2023-01-13T01:24:57.239Z,7.00
2023-01-13T01:46:27.488Z,7.10
2023-01-13T01:49:00.863Z,7.10
2023-01-13T01:51:31.604Z,7.10
2023-01-13T01:54:01.993Z,7.10
2023-01-13T01:56:30.904Z,7.10
2023-01-13T01:58:59.583Z,7.10
2023-01-13T02:01:30.092Z,7.10
2023-01-13T02:04:03.994Z,7.10
2023-01-13T02:06:32.744Z,7.10
2023-01-13T02:09:02.295Z,7.10
2023-01-13T02:11:50.176Z,7.10
2023-01-13T02:14:19.758Z,7.00
2023-01-13T02:17:30.508Z,7.00
2023-01-13T02:20:19.228Z,7.00
2023-01-13T02:23:43.945Z,6.90
2023-01-13T02:26:42.650Z,6.90
2023-01-13T02:29:36.377Z,6.90
2023-01-13T02:32:13.225Z,6.90
2023-01-13T02:34:47.836Z,6.90
2023-01-13T02:37:20.950Z,6.90
2023-01-13T02:39:58.825Z,6.90
2023-01-13T02:42:49.462Z,6.90
2023-01-13T02:45:24.769Z,6.90
2023-01-13T02:47:57.465Z,6.90
2023-01-13T02:50:30.229Z,6.90
2023-01-13T02:53:02.007Z,6.90
2023-01-13T02:55:35.313Z,6.90
2023-01-13T02:58:07.097Z,6.90
2023-01-13T03:00:37.623Z,6.90
2023-01-13T03:03:07.540Z,6.90
2023-01-13T03:05:36.720Z,6.80
2023-01-13T03:08:18.602Z,6.80
2023-01-13T03:10:54.928Z,6.80
2023-01-13T03:13:46.445Z,6.80
2023-01-13T03:16:24.509Z,6.90
2023-01-13T03:19:08.277Z,6.90
2023-01-13T03:21:44.248Z,6.90
2023-01-13T03:24:18.783Z,6.90
2023-01-13T03:26:50.386Z,7.00
2023-01-13T03:29:23.191Z,7.00
2023-01-13T03:31:57.660Z,7.00
2023-01-13T03:34:57.822Z,7.00
2023-01-13T03:37:32.216Z,7.00
2023-01-13T03:40:04.931Z,7.00
2023-01-13T03:42:36.300Z,7.00
2023-01-13T03:45:09.335Z,7.00
2023-01-13T03:47:42.986Z,7.00
2023-01-13T03:50:16.198Z,7.10
2023-01-13T03:52:48.728Z,7.10
2023-01-13T03:55:19.520Z,7.10
2023-01-13T03:57:53.954Z,7.10
2023-01-13T04:00:27.575Z,7.10
2023-01-13T04:02:59.917Z,7.10
2023-01-13T04:05:29.959Z,7.10
2023-01-13T04:08:08.306Z,7.20
2023-01-13T04:10:41.927Z,7.20
2023-01-13T04:13:13.862Z,7.20
2023-01-13T04:15:45.426Z,7.20
2023-01-13T04:18:17.116Z,7.20
2023-01-13T04:20:48.275Z,7.20
2023-01-13T04:23:19.478Z,7.20
2023-01-13T04:25:49.119Z,7.20
2023-01-13T04:28:19.265Z,7.20
2023-01-13T04:30:48.532Z,7.20
2023-01-13T04:33:18.275Z,7.20
2023-01-13T04:35:47.933Z,7.20
2023-01-13T04:38:20.110Z,7.20
2023-01-13T04:40:49.064Z,7.20
2023-01-13T04:43:17.740Z,7.20
2023-01-13T04:45:46.572Z,7.10
2023-01-13T04:48:15.168Z,7.10
2023-01-13T04:50:43.806Z,7.10
2023-01-13T04:53:12.478Z,7.10
2023-01-13T04:55:42.473Z,7.10
2023-01-13T04:58:12.258Z,7.10
2023-01-13T05:00:40.834Z,7.20
2023-01-13T05:03:09.519Z,7.10
2023-01-13T05:05:38.361Z,7.20
2023-01-13T05:08:17.565Z,7.20
2023-01-13T05:10:47.567Z,7.10
2023-01-13T05:13:33.544Z,7.10
2023-01-13T05:16:20.230Z,7.10
2023-01-13T05:18:48.880Z,7.10
2023-01-13T05:21:31.418Z,7.10
2023-01-13T05:24:17.077Z,7.10
2023-01-13T05:26:47.087Z,7.00
2023-01-13T05:29:15.656Z,7.00
2023-01-13T05:31:44.349Z,7.00
2023-01-13T05:34:12.873Z,7.10
2023-01-13T05:36:41.404Z,7.00
2023-01-13T05:39:09.984Z,7.10
2023-01-13T05:41:55.867Z,7.00
2023-01-13T06:00:00.713Z,6.90
2023-01-13T06:02:29.508Z,6.90
2023-01-13T06:04:58.080Z,6.90
2023-01-13T06:07:26.611Z,6.90
2023-01-13T06:09:55.142Z,6.90
2023-01-13T06:12:24.115Z,6.90
2023-01-13T06:14:52.677Z,6.90
2023-01-13T06:17:22.739Z,6.90
2023-01-13T06:19:52.111Z,6.90
2023-01-13T06:22:25.033Z,6.90
2023-01-13T06:24:55.450Z,6.90
2023-01-13T06:27:24.349Z,6.80
2023-01-13T06:29:52.909Z,6.80
2023-01-13T06:32:26.671Z,6.90
2023-01-13T06:35:01.116Z,6.90
2023-01-13T06:37:32.375Z,6.90
2023-01-13T06:40:02.775Z,6.90
2023-01-13T06:42:54.869Z,6.90
2023-01-13T06:45:24.647Z,6.90
2023-01-13T06:47:57.069Z,7.00
2023-01-13T06:50:25.648Z,7.00
2023-01-13T06:52:54.212Z,7.00
2023-01-13T06:55:22.800Z,7.00
2023-01-13T06:57:52.965Z,7.00
2023-01-13T07:00:23.268Z,7.00
2023-01-13T07:02:52.107Z,7.00
2023-01-13T07:05:22.504Z,7.00
2023-01-13T07:07:51.059Z,7.00
2023-01-13T07:10:23.232Z,7.00
2023-01-13T07:13:09.197Z,7.00
2023-01-13T07:15:37.739Z,7.00
2023-01-13T07:18:06.577Z,7.00
2023-01-13T07:20:36.529Z,7.00
2023-01-13T07:23:05.095Z,7.10
2023-01-13T07:25:34.286Z,7.10
2023-01-13T07:28:02.906Z,7.10
2023-01-13T07:30:31.416Z,7.10
2023-01-13T07:32:59.935Z,7.10
2023-01-13T07:35:28.550Z,7.10
2023-01-13T07:37:58.518Z,7.10
2023-01-13T07:40:27.158Z,7.10
2023-01-13T07:43:13.173Z,7.20
2023-01-13T07:45:41.717Z,7.10
2023-01-13T07:48:10.356Z,7.20
2023-01-13T07:50:38.873Z,7.20
2023-01-13T07:53:08.829Z,7.20
2023-01-13T07:55:41.957Z,7.20
2023-01-13T07:58:10.667Z,7.30
2023-01-13T08:00:39.698Z,7.30
2023-01-13T08:03:08.243Z,7.40
2023-01-13T08:05:37.183Z,7.50
2023-01-13T08:08:06.044Z,7.50
2023-01-13T08:10:35.955Z,7.60
2023-01-13T08:13:20.122Z,7.70
2023-01-13T08:15:51.031Z,7.80
2023-01-13T08:18:22.185Z,7.90
2023-01-13T08:20:52.588Z,7.90
2023-01-13T08:23:22.427Z,7.90
2023-01-13T08:25:52.378Z,8.00
2023-01-13T08:28:21.039Z,8.00
2023-01-13T08:30:49.748Z,8.00
2023-01-13T08:33:18.787Z,8.00
2023-01-13T08:35:49.225Z,8.00
2023-01-13T08:38:17.777Z,8.00
2023-01-13T08:40:46.348Z,8.10
2023-01-13T08:43:16.502Z,8.10
2023-01-13T08:45:45.152Z,8.10
2023-01-13T08:48:13.846Z,8.20
2023-01-13T08:50:42.433Z,8.30
2023-01-13T08:53:11.256Z,8.30
2023-01-13T08:55:41.595Z,8.30
2023-01-13T08:58:15.311Z,8.40
2023-01-13T09:00:46.972Z,8.40
2023-01-13T09:03:15.561Z,8.40
2023-01-13T09:05:44.090Z,8.40
2023-01-13T09:08:12.678Z,8.50
2023-01-13T09:10:41.560Z,8.60
2023-01-13T09:13:13.624Z,8.60
2023-01-13T09:15:43.650Z,8.70
2023-01-13T09:18:14.076Z,8.80
2023-01-13T09:20:42.853Z,8.80
2023-01-13T09:23:11.624Z,8.90
2023-01-13T09:25:40.634Z,8.90
2023-01-13T09:28:09.380Z,9.00
2023-01-13T09:30:39.172Z,9.00
2023-01-13T09:33:25.174Z,9.00
2023-01-13T09:35:59.257Z,9.00
2023-01-13T09:38:28.809Z,9.00
2023-01-13T09:40:57.725Z,9.00
2023-01-13T09:43:47.890Z,9.00
2023-01-13T09:46:34.345Z,9.00
2023-01-13T09:49:03.953Z,9.00
2023-01-13T09:51:41.056Z,9.10
2023-01-13T09:54:17.350Z,9.20
2023-01-13T09:56:46.518Z,9.20
2023-01-13T09:59:16.345Z,9.30
2023-01-13T10:01:51.819Z,9.30
2023-01-13T10:04:20.631Z,9.40
2023-01-13T10:06:53.818Z,9.40
2023-01-13T10:09:28.427Z,9.50
2023-01-13T10:12:16.204Z,9.50
2023-01-13T10:14:52.648Z,9.50
2023-01-13T10:17:31.637Z,9.60
2023-01-13T10:20:13.835Z,9.70
2023-01-13T10:22:55.200Z,9.70
2023-01-13T10:25:36.074Z,9.80
2023-01-13T10:28:10.779Z,9.70
2023-01-13T10:30:42.098Z,9.80
2023-01-13T10:33:17.605Z,9.80
2023-01-13T10:35:55.070Z,9.80
2023-01-13T10:38:27.665Z,9.70
2023-01-13T10:40:58.217Z,9.70
2023-01-13T10:43:27.667Z,9.80
2023-01-13T10:46:02.083Z,9.80
2023-01-13T10:48:36.702Z,9.80
2023-01-13T10:51:22.957Z,9.80
2023-01-13T10:53:56.018Z,9.80
2023-01-13T10:56:26.392Z,9.90
2023-01-13T10:59:13.639Z,9.80
2023-01-13T11:01:45.087Z,9.90
2023-01-13T11:04:29.732Z,9.90
2023-01-13T11:06:59.147Z,9.90
2023-01-13T11:09:30.972Z,9.90
2023-01-13T11:12:00.345Z,10.00
2023-01-13T11:14:39.894Z,10.00
2023-01-13T11:17:19.707Z,10.10
2023-01-13T11:19:54.232Z,10.20
2023-01-13T11:22:26.947Z,10.30
2023-01-13T11:25:01.518Z,10.40
2023-01-13T11:27:42.664Z,10.50
2023-01-13T11:30:29.773Z,10.60
2023-01-13T11:33:07.440Z,10.70
2023-01-13T11:35:41.440Z,10.70
2023-01-13T11:38:16.537Z,10.70
2023-01-13T11:40:49.715Z,10.70
2023-01-13T11:43:25.140Z,10.70
2023-01-13T11:45:57.604Z,10.70
2023-01-13T11:48:33.729Z,10.70
2023-01-13T11:51:09.162Z,10.70
2023-01-13T11:54:02.710Z,10.70
2023-01-13T11:56:53.131Z,10.70
2023-01-13T11:59:39.279Z,10.70
2023-01-13T12:02:20.493Z,10.60
2023-01-13T12:04:56.616Z,10.50
2023-01-13T12:07:37.795Z,10.50
2023-01-13T12:10:13.692Z,10.50
2023-01-13T12:12:52.345Z,10.40
2023-01-13T12:15:41.514Z,10.40
2023-01-13T12:18:39.222Z,10.40
2023-01-13T12:21:20.668Z,10.40
2023-01-13T12:23:59.436Z,10.30
2023-01-13T12:26:31.357Z,10.20
2023-01-13T12:29:07.580Z,10.20
2023-01-13T12:31:39.193Z,10.10
2023-01-13T12:34:23.394Z,10.10
2023-01-13T12:36:59.737Z,10.10
2023-01-13T12:39:38.671Z,10.10
2023-01-13T12:42:30.227Z,10.00
2023-01-13T12:45:23.930Z,10.00
2023-01-13T12:47:53.275Z,10.00
2023-01-13T12:50:42.050Z,10.00
2023-01-13T12:53:33.734Z,9.90
2023-01-13T12:56:41.201Z,9.90
2023-01-13T12:59:51.339Z,9.80
2023-01-13T13:02:30.456Z,9.80
2023-01-13T13:05:01.867Z,9.80
2023-01-13T13:07:42.641Z,9.80
2023-01-13T13:10:19.663Z,9.80
2023-01-13T13:13:16.395Z,9.80
2023-01-13T13:15:46.061Z,9.80
2023-01-13T13:18:28.614Z,9.70
2023-01-13T13:21:03.653Z,9.70
2023-01-13T13:24:03.039Z,9.60
2023-01-13T13:26:37.514Z,9.40
2023-01-13T13:29:44.183Z,9.30
2023-01-13T13:32:43.605Z,9.20
2023-01-13T13:35:32.512Z,9.10
2023-01-13T13:38:31.068Z,9.10
2023-01-13T13:41:17.233Z,9.00
2023-01-13T13:44:04.429Z,9.00
2023-01-13T13:46:50.643Z,9.00
2023-01-13T13:49:21.405Z,9.00
2023-01-13T13:52:00.792Z,9.00
2023-01-13T13:54:29.550Z,9.00
2023-01-13T13:56:58.740Z,9.00
2023-01-13T13:59:30.695Z,9.00
2023-01-13T14:02:03.775Z,9.00
2023-01-13T14:04:37.014Z,9.00
2023-01-13T14:07:18.495Z,9.00
2023-01-13T14:09:50.759Z,9.00
2023-01-13T14:12:21.353Z,9.10
2023-01-13T14:14:51.043Z,9.00
2023-01-13T14:17:26.743Z,9.10
2023-01-13T14:20:00.216Z,9.10
2023-01-13T14:22:30.231Z,9.10
2023-01-13T14:24:58.796Z,9.10
2023-01-13T14:27:28.707Z,9.10
2023-01-13T14:29:59.543Z,9.10
2023-01-13T14:32:34.480Z,9.10
2023-01-13T14:35:03.210Z,9.10
2023-01-13T14:37:37.850Z,9.10
2023-01-13T14:40:07.352Z,9.10
2023-01-13T14:42:36.330Z,9.00
2023-01-13T14:45:05.454Z,9.00
2023-01-13T14:47:34.831Z,8.90
2023-01-13T14:50:05.893Z,8.90
2023-01-13T14:52:37.658Z,8.80
2023-01-13T14:55:23.744Z,8.80
2023-01-13T14:57:52.529Z,8.70
2023-01-13T15:00:25.084Z,8.80
2023-01-13T15:03:08.087Z,8.70
2023-01-13T15:05:47.352Z,8.70
2023-01-13T15:08:37.693Z,8.70
2023-01-13T15:11:09.468Z,8.70
2023-01-13T15:13:43.683Z,8.70
2023-01-13T15:16:21.586Z,8.70
2023-01-13T15:18:50.639Z,8.70
2023-01-13T15:21:20.134Z,8.70
2023-01-13T15:23:50.614Z,8.70
2023-01-13T15:26:22.744Z,8.70
2023-01-13T15:28:52.735Z,8.60
2023-01-13T15:31:21.902Z,8.60
2023-01-13T15:33:50.743Z,8.60
2023-01-13T15:36:26.075Z,8.60
2023-01-13T15:38:56.715Z,8.60
2023-01-13T15:41:43.887Z,8.50
2023-01-13T15:44:30.964Z,8.60
2023-01-13T15:47:02.355Z,8.60
2023-01-13T15:49:36.265Z,8.60
2023-01-13T15:52:06.073Z,8.60
2023-01-13T15:54:36.081Z,8.60
2023-01-13T15:57:04.885Z,8.60
2023-01-13T15:59:34.004Z,8.60
2023-01-13T16:02:02.703Z,8.60
2023-01-13T16:04:31.279Z,8.60
2023-01-13T16:07:00.989Z,8.60
2023-01-13T16:09:29.656Z,8.70
2023-01-13T16:11:59.668Z,8.70
2023-01-13T16:14:29.528Z,8.70
2023-01-13T16:16:58.196Z,8.70
2023-01-13T16:19:26.771Z,8.70
2023-01-13T16:21:55.444Z,8.60
2023-01-13T16:24:24.564Z,8.60
2023-01-13T16:26:53.261Z,8.50
2023-01-13T16:29:23.210Z,8.60
2023-01-13T16:31:51.879Z,8.60
2023-01-13T16:34:20.492Z,8.60
2023-01-13T16:36:49.114Z,8.60
2023-01-13T16:39:23.405Z,8.60
2023-01-13T16:41:52.057Z,8.60
2023-01-13T16:44:22.132Z,8.60
2023-01-13T16:46:50.959Z,8.60
2023-01-13T16:49:19.598Z,8.60
2023-01-13T16:51:48.216Z,8.60
2023-01-13T16:54:16.816Z,8.50
2023-01-13T16:56:45.383Z,8.50
2023-01-13T16:59:15.295Z,8.50
2023-01-13T17:01:45.933Z,8.50
2023-01-13T17:04:17.453Z,8.50
2023-01-13T17:06:53.452Z,8.40
2023-01-13T17:09:24.707Z,8.40
2023-01-13T17:11:53.634Z,8.40
2023-01-13T17:14:23.589Z,8.40
2023-01-13T17:32:35.937Z,8.20
2023-01-13T17:35:06.027Z,8.20
2023-01-13T17:37:34.839Z,8.20
2023-01-13T17:40:03.437Z,8.20
2023-01-13T17:42:32.406Z,8.20
2023-01-13T17:45:01.056Z,8.20
2023-01-13T17:47:31.944Z,8.10
2023-01-13T17:50:01.931Z,8.10
2023-01-13T17:52:32.405Z,8.10
2023-01-13T17:55:00.963Z,8.10
2023-01-13T17:57:29.621Z,8.10
2023-01-13T17:59:59.729Z,8.00
2023-01-13T18:02:30.298Z,8.00
2023-01-13T18:04:58.927Z,7.90
2023-01-13T18:07:28.867Z,7.90
2023-01-13T18:09:57.403Z,7.80
2023-01-13T18:12:25.963Z,7.80
2023-01-13T18:14:54.556Z,7.70
2023-01-13T18:17:23.247Z,7.70
2023-01-13T18:20:09.305Z,7.70
2023-01-13T18:22:56.901Z,7.70
2023-01-13T18:25:42.560Z,7.70
2023-01-13T18:28:11.144Z,7.70
2023-01-13T18:30:39.765Z,7.60
2023-01-13T18:33:08.435Z,7.60
2023-01-13T18:35:47.000Z,7.60
2023-01-13T18:38:18.864Z,7.60
2023-01-13T18:40:47.527Z,7.60
2023-01-13T18:43:15.150Z,7.60
2023-01-13T18:45:43.731Z,7.60
2023-01-13T18:48:12.392Z,7.50
2023-01-13T18:50:52.027Z,7.60
2023-01-13T18:53:22.025Z,7.60
2023-01-13T18:55:50.672Z,7.60
2023-01-13T18:58:20.572Z,7.60
2023-01-13T19:00:49.294Z,7.60
2023-01-13T19:03:29.551Z,7.60
2023-01-13T19:06:07.537Z,7.60
2023-01-13T19:08:39.419Z,7.70
2023-01-13T19:11:08.639Z,7.70
2023-01-13T19:13:37.515Z,7.70
2023-01-13T19:16:07.019Z,7.70
2023-01-13T19:18:37.225Z,7.70
2023-01-13T19:21:06.954Z,7.70
2023-01-13T19:23:37.399Z,7.70
2023-01-13T19:26:11.302Z,7.70
2023-01-13T19:28:41.397Z,7.70
2023-01-13T19:31:12.816Z,7.60
2023-01-13T19:33:41.669Z,7.70
2023-01-13T19:36:11.580Z,7.70
2023-01-13T19:38:41.483Z,7.70
2023-01-13T19:41:32.844Z,7.60
2023-01-13T19:44:18.969Z,7.60
2023-01-13T19:46:47.576Z,7.70
2023-01-13T19:49:16.154Z,7.70
2023-01-13T19:51:44.692Z,7.70
2023-01-13T19:54:14.700Z,7.70
2023-01-13T19:56:43.758Z,7.70
2023-01-13T19:59:13.440Z,7.70
2023-01-13T20:01:42.109Z,7.70
2023-01-13T20:04:14.467Z,7.70
2023-01-13T20:06:43.027Z,7.80
2023-01-13T20:09:11.792Z,7.80
2023-01-13T20:11:41.766Z,7.90
2023-01-13T20:14:10.430Z,8.00
2023-01-13T20:16:39.051Z,8.20
2023-01-13T20:19:07.682Z,8.20
2023-01-13T20:21:37.882Z,8.30
2023-01-13T20:24:07.808Z,8.20
2023-01-13T20:26:38.491Z,8.20
2023-01-13T20:29:08.442Z,8.20
2023-01-13T20:31:37.054Z,8.20
2023-01-13T20:34:06.066Z,8.30
2023-01-13T20:36:39.074Z,8.30
2023-01-13T20:39:08.906Z,8.40
2023-01-13T20:41:55.181Z,8.30
2023-01-13T20:44:36.622Z,8.30
2023-01-13T20:47:05.884Z,8.30
2023-01-13T20:49:36.132Z,8.40
2023-01-13T20:52:09.370Z,8.40
2023-01-13T20:54:38.142Z,8.40
2023-01-13T20:57:08.056Z,8.40
2023-01-13T22:06:51.899Z,8.20
2023-01-13T22:09:20.479Z,8.20
2023-01-13T22:11:49.070Z,8.10
2023-01-13T22:14:17.681Z,8.10
2023-01-13T22:16:49.751Z,8.10
2023-01-13T22:19:19.698Z,8.00
2023-01-13T22:21:48.248Z,8.00
2023-01-13T22:24:18.312Z,8.00
2023-01-13T22:26:46.858Z,7.90
2023-01-13T22:29:15.493Z,7.80
2023-01-13T22:31:44.105Z,7.80
2023-01-13T22:34:13.942Z,7.70
2023-01-13T22:36:42.512Z,7.70
2023-01-13T22:39:12.293Z,7.60
2023-01-13T22:41:42.207Z,7.60
2023-01-13T22:44:10.747Z,7.50
2023-01-13T22:46:39.334Z,7.50
2023-01-13T22:49:07.903Z,7.50
2023-01-13T22:51:36.473Z,7.40
2023-01-13T22:54:05.352Z,7.40
2023-01-13T22:56:34.192Z,7.40
2023-01-13T22:59:05.718Z,7.40
2023-01-13T23:01:35.893Z,7.40
2023-01-13T23:04:05.313Z,7.40
2023-01-13T23:06:35.242Z,7.40
2023-01-13T23:09:03.947Z,7.40
2023-01-13T23:11:32.917Z,7.30
2023-01-13T23:14:05.981Z,7.30
2023-01-13T23:16:36.391Z,7.30
2023-01-13T23:19:05.262Z,7.30
2023-01-13T23:21:36.192Z,7.30
2023-01-13T23:24:05.944Z,7.20
2023-01-13T23:26:35.796Z,7.10
2023-01-13T23:29:08.179Z,7.10
2023-01-13T23:31:36.794Z,7.00
2023-01-13T23:34:05.395Z,7.00
2023-01-13T23:36:37.087Z,6.90
2023-01-13T23:39:05.705Z,6.90
2023-01-13T23:41:34.296Z,6.80
2023-01-13T23:44:03.267Z,6.80
2023-01-13T23:46:34.319Z,6.80
2023-01-13T23:49:03.985Z,6.70
2023-01-13T23:51:32.664Z,6.70
2023-01-13T23:54:01.376Z,6.70
2023-01-13T23:56:33.012Z,6.70
2023-01-13T23:59:01.638Z,6.60
